Time;durP1;ratioP1;P1;durP2;ratioP2;P2;SDS_P1;SDS_P2;PMS_P1;PMS_P2;Temp;Humidity;BMP_temperature;BMP_pressure;BME280_temperature;BME280_humidity;BME280_pressure;Samples;Min_cycle;Max_cycle;Signal;HPM_P1;HPM_P2
2022/05/03 00:02:06;;;;;;;11.85;7.00;;;5.20;99.90;;;;;;4988444;28;20077;-71
2022/05/03 00:04:38;;;;;;;10.90;6.97;;;5.10;99.90;;;;;;4988836;28;20068;-71
2022/05/03 00:07:15;;;;;;;11.63;6.65;;;5.20;99.90;;;;;;4972462;28;20054;-70
2022/05/03 00:09:54;;;;;;;9.93;6.63;;;5.10;99.90;;;;;;4970670;28;20054;-70
2022/05/03 00:12:28;;;;;;;9.75;6.38;;;5.10;99.90;;;;;;4988518;28;20058;-70
2022/05/03 00:14:58;;;;;;;10.67;6.53;;;5.00;99.90;;;;;;4972353;28;20054;-71
2022/05/03 00:17:25;;;;;;;12.40;7.53;;;5.00;99.90;;;;;;4970275;28;20221;-70
2022/05/03 00:19:53;;;;;;;10.77;6.80;;;4.90;99.90;;;;;;4988525;28;20556;-71
2022/05/03 00:22:19;;;;;;;9.52;6.70;;;4.90;99.90;;;;;;4988274;28;20763;-71
2022/05/03 00:24:46;;;;;;;13.75;7.10;;;4.90;99.90;;;;;;4956218;28;20177;-70
2022/05/03 00:27:13;;;;;;;13.30;6.80;;;4.90;99.90;;;;;;4971407;28;20825;-70
2022/05/03 00:29:39;;;;;;;9.48;6.55;;;4.90;99.90;;;;;;4969239;28;20560;-69
2022/05/03 00:32:05;;;;;;;10.85;7.00;;;4.90;99.90;;;;;;4998435;28;20079;-71
2022/05/03 00:34:35;;;;;;;11.57;6.97;;;4.90;99.90;;;;;;5048943;28;20053;-70
2022/05/03 00:37:01;;;;;;;11.10;6.57;;;4.80;99.90;;;;;;5050167;28;20051;-70
2022/05/03 00:39:27;;;;;;;12.85;6.50;;;4.80;99.90;;;;;;5049974;28;20049;-70
2022/05/03 00:42:12;;;;;;;8.85;6.30;;;4.70;99.90;;;;;;5050402;28;20044;-70
2022/05/03 00:44:58;;;;;;;8.75;6.60;;;4.80;99.90;;;;;;5032378;28;20071;-70
2022/05/03 00:47:51;;;;;;;11.85;6.15;;;4.70;99.90;;;;;;5049967;28;20091;-70
2022/05/03 00:50:37;;;;;;;11.10;6.50;;;4.60;99.90;;;;;;5037962;28;20449;-70
2022/05/03 00:53:19;;;;;;;8.68;5.80;;;4.50;99.90;;;;;;5050307;28;20044;-71
2022/05/03 00:56:12;;;;;;;10.48;7.00;;;4.50;99.90;;;;;;5049318;28;20060;-70
2022/05/03 00:58:57;;;;;;;9.65;6.85;;;4.50;99.90;;;;;;5053321;28;20053;-70
2022/05/03 01:01:50;;;;;;;11.05;7.20;;;4.40;99.90;;;;;;5071466;28;20048;-70
2022/05/03 01:04:29;;;;;;;9.10;6.72;;;4.40;99.90;;;;;;5074090;28;20061;-70
2022/05/03 01:07:14;;;;;;;11.35;7.07;;;4.40;99.90;;;;;;5072722;28;20053;-70
2022/05/03 01:09:41;;;;;;;13.57;7.37;;;4.40;99.90;;;;;;5074001;28;20040;-70
2022/05/03 01:12:32;;;;;;;9.93;6.82;;;4.30;99.90;;;;;;5071450;28;20040;-71
2022/05/03 01:15:17;;;;;;;8.52;6.38;;;4.30;99.90;;;;;;5072161;28;20498;-71
2022/05/03 01:17:45;;;;;;;;;;;4.20;99.90;;;;;;5074201;28;20040;-71
2022/05/03 01:20:16;;;;;;;12.07;7.57;;;4.30;99.90;;;;;;5072533;28;19924;-69
2022/05/03 01:23:19;;;;;;;9.15;6.95;;;4.30;99.90;;;;;;5072373;28;20104;-71
2022/05/03 01:26:04;;;;;;;12.13;7.88;;;4.30;99.90;;;;;;5073946;28;20051;-71
2022/05/03 01:28:33;;;;;;;11.38;7.63;;;4.30;99.90;;;;;;5074037;28;20044;-71
2022/05/03 01:31:07;;;;;;;14.88;7.43;;;4.30;99.90;;;;;;5073150;28;20056;-68
2022/05/03 01:33:45;;;;;;;10.50;7.78;;;4.30;99.90;;;;;;5069002;28;20119;-70
2022/05/03 01:36:15;;;;;;;11.60;7.57;;;4.30;99.90;;;;;;5052334;28;20044;-70
2022/05/03 01:38:59;;;;;;;14.13;9.43;;;4.30;99.90;;;;;;5052866;28;20472;-71
2022/05/03 01:42:16;;;;;;;10.27;7.67;;;4.40;99.90;;;;;;5052243;28;20044;-70
2022/05/03 01:44:56;;;;;;;12.63;8.32;;;4.40;99.90;;;;;;4994821;28;20404;-70
2022/05/03 01:47:36;;;;;;;11.38;7.88;;;4.40;99.90;;;;;;4994687;28;20455;-70
2022/05/03 01:50:20;;;;;;;9.85;7.10;;;4.40;99.90;;;;;;4995025;28;20050;-69
2022/05/03 01:52:48;;;;;;;13.10;7.30;;;4.30;99.90;;;;;;4993083;28;20129;-71
2022/05/03 01:55:53;;;;;;;10.05;7.80;;;4.20;99.90;;;;;;4972151;28;20054;-71
2022/05/03 01:58:43;;;;;;;11.65;7.35;;;4.20;99.90;;;;;;4959702;28;20066;-70
2022/05/03 02:01:17;;;;;;;13.20;7.65;;;4.20;99.90;;;;;;4964261;28;20058;-69
2022/05/03 02:03:53;;;;;;;11.18;7.65;;;4.10;99.90;;;;;;4966990;28;20082;-70
2022/05/03 02:06:38;;;;;;;11.45;7.78;;;4.50;99.90;;;;;;4991410;28;20042;-71
2022/05/03 02:09:07;;;;;;;11.25;7.82;;;4.10;99.90;;;;;;4990809;28;20097;-69
2022/05/03 02:11:46;;;;;;;15.23;7.97;;;4.10;99.90;;;;;;4991911;28;20065;-71
2022/05/03 02:14:44;;;;;;;11.25;7.80;;;4.40;99.90;;;;;;4987890;28;20066;-70
2022/05/03 02:17:18;;;;;;;11.98;8.00;;;4.10;99.90;;;;;;4994445;28;20054;-69
2022/05/03 02:19:47;;;;;;;9.50;6.63;;;4.10;99.90;;;;;;4998286;28;20060;-70
2022/05/03 02:22:25;;;;;;;8.95;6.38;;;4.20;99.90;;;;;;5067281;28;20474;-70
2022/05/03 02:25:01;;;;;;;9.65;6.63;;;4.00;99.90;;;;;;5051710;28;20068;-71
2022/05/03 02:27:31;;;;;;;13.98;7.85;;;4.00;99.90;;;;;;5055666;28;20040;-69
2022/05/03 02:29:58;;;;;;;10.23;7.30;;;4.00;99.90;;;;;;5052519;28;20115;-70
2022/05/03 02:33:01;;;;;;;10.88;7.70;;;4.00;99.90;;;;;;5057253;28;20053;-69
2022/05/03 02:35:33;;;;;;;8.77;7.22;;;4.00;99.90;;;;;;5071134;28;20127;-70
2022/05/03 02:38:06;;;;;;;12.35;7.10;;;4.00;99.90;;;;;;5070760;28;20139;-70
2022/05/03 02:40:33;;;;;;;9.00;6.88;;;4.00;99.90;;;;;;5072411;28;20052;-70
2022/05/03 02:42:59;;;;;;;9.43;6.93;;;3.90;99.90;;;;;;5056737;28;20161;-69
2022/05/03 02:45:25;;;;;;;10.13;7.53;;;4.00;99.90;;;;;;5060758;28;20053;-71
2022/05/03 02:48:13;;;;;;;8.93;7.38;;;4.00;99.90;;;;;;5051128;28;20048;-71
2022/05/03 02:50:54;;;;;;;9.18;6.55;;;4.00;99.90;;;;;;5070266;28;20055;-71
2022/05/03 02:53:31;;;;;;;8.68;6.90;;;4.10;99.90;;;;;;5070552;28;20119;-70
2022/05/03 02:56:14;;;;;;;10.05;7.50;;;4.10;99.90;;;;;;5072159;28;20126;-70
2022/05/03 02:58:54;;;;;;;11.75;7.70;;;4.80;99.90;;;;;;5068335;28;20048;-70
2022/05/03 03:02:04;;;;;;;12.77;8.68;;;4.30;99.90;;;;;;5052586;28;20079;-70
2022/05/03 03:04:36;;;;;;;11.63;8.85;;;4.30;99.90;;;;;;5064920;28;20044;-70
2022/05/03 03:07:04;;;;;;;14.90;9.88;;;4.50;99.90;;;;;;5053616;28;20132;-70
2022/05/03 03:09:44;;;;;;;13.73;10.07;;;4.50;99.90;;;;;;5051908;28;20135;-70
2022/05/03 03:12:42;;;;;;;13.95;10.13;;;4.50;99.90;;;;;;5062032;28;20047;-70
2022/05/03 03:15:09;;;;;;;14.80;10.32;;;4.60;99.90;;;;;;5066587;28;20080;-70
2022/05/03 03:17:44;;;;;;;15.38;11.18;;;4.60;99.90;;;;;;5066361;28;20500;-71
2022/05/03 03:20:13;;;;;;;18.90;11.15;;;4.70;99.90;;;;;;5070653;28;20041;-71
2022/05/03 03:22:41;;;;;;;15.52;11.55;;;4.80;99.90;;;;;;5070331;28;20056;-70
2022/05/03 03:25:14;;;;;;;19.55;12.00;;;4.90;99.90;;;;;;5070658;28;20056;-69
2022/05/03 03:27:42;;;;;;;17.63;11.90;;;4.90;99.90;;;;;;5051249;28;20045;-71
2022/05/03 03:30:10;;;;;;;16.75;12.43;;;5.00;99.90;;;;;;5049994;28;20110;-70
2022/05/03 03:32:50;;;;;;;17.40;12.13;;;5.10;99.90;;;;;;5060416;28;20063;-71
2022/05/03 03:35:17;;;;;;;13.48;10.40;;;5.20;99.90;;;;;;5071006;28;20044;-70
2022/05/03 03:37:49;;;;;;;17.15;12.65;;;5.50;99.90;;;;;;5067734;28;20048;-70
2022/05/03 03:40:16;;;;;;;18.15;13.77;;;5.30;99.90;;;;;;5071463;28;20070;-70
2022/05/03 03:42:44;;;;;;;15.50;11.25;;;5.30;99.90;;;;;;5065749;28;20040;-70
2022/05/03 03:45:12;;;;;;;17.30;12.18;;;5.40;99.90;;;;;;5055791;28;20037;-71
2022/05/03 03:47:39;;;;;;;15.27;11.48;;;5.50;99.90;;;;;;5058958;28;20048;-69
2022/05/03 03:50:06;;;;;;;15.70;12.25;;;5.60;99.90;;;;;;5070742;28;20078;-70
2022/05/03 03:52:34;;;;;;;18.30;12.57;;;5.60;99.90;;;;;;5070951;28;20098;-70
2022/05/03 03:55:01;;;;;;;19.10;12.40;;;5.70;99.90;;;;;;5070987;28;20051;-70
2022/05/03 03:57:27;;;;;;;17.42;12.90;;;5.70;99.90;;;;;;5066858;28;20041;-70
2022/05/03 03:59:53;;;;;;;19.30;13.45;;;5.80;99.90;;;;;;5050987;28;20544;-70
2022/05/03 04:02:20;;;;;;;15.82;12.73;;;5.80;99.90;;;;;;5050912;28;20045;-70
2022/05/03 04:04:48;;;;;;;16.20;13.18;;;5.90;99.90;;;;;;5049284;28;20053;-70
2022/05/03 04:07:13;;;;;;;16.58;12.10;;;5.90;99.90;;;;;;5049342;28;20137;-70
2022/05/03 04:09:39;;;;;;;17.85;13.27;;;6.00;99.90;;;;;;5050235;28;20119;-71
2022/05/03 04:12:05;;;;;;;20.27;13.50;;;6.10;99.90;;;;;;5061224;28;20106;-70
2022/05/03 04:14:31;;;;;;;18.90;13.45;;;6.10;99.90;;;;;;5070633;28;20040;-71
2022/05/03 04:16:57;;;;;;;18.55;13.88;;;6.20;99.90;;;;;;5070450;28;20087;-70
2022/05/03 04:19:23;;;;;;;20.33;14.88;;;6.20;99.90;;;;;;5058804;28;20369;-71
2022/05/03 04:21:49;;;;;;;20.08;14.23;;;6.30;99.90;;;;;;5050380;28;20037;-70
2022/05/03 04:24:15;;;;;;;18.35;14.15;;;6.60;99.90;;;;;;5052301;28;20048;-70
2022/05/03 04:26:41;;;;;;;20.13;15.00;;;6.40;99.90;;;;;;5070696;28;20487;-71
2022/05/03 04:29:07;;;;;;;21.60;15.82;;;6.50;99.90;;;;;;5067760;28;20078;-69
2022/05/03 04:31:35;;;;;;;20.45;16.23;;;6.80;99.90;;;;;;5069178;28;20058;-71
2022/05/03 04:34:03;;;;;;;23.67;15.48;;;6.60;99.90;;;;;;5069178;28;20052;-71
2022/05/03 04:36:33;;;;;;;22.90;16.25;;;6.70;99.90;;;;;;5070039;28;20078;-70
2022/05/03 04:39:00;;;;;;;22.90;16.25;;;6.70;99.90;;;;;;5069980;28;20067;-70
2022/05/03 04:41:26;;;;;;;21.88;14.88;;;6.80;99.90;;;;;;5058480;28;20059;-70
2022/05/03 04:43:51;;;;;;;21.73;16.27;;;6.80;99.90;;;;;;5069218;28;20557;-70
2022/05/03 04:46:18;;;;;;;24.75;15.75;;;6.90;99.90;;;;;;5068591;28;20060;-70
2022/05/03 04:48:43;;;;;;;27.08;17.45;;;6.90;99.90;;;;;;5068641;28;20048;-71
2022/05/03 04:51:20;;;;;;;21.50;16.52;;;6.90;99.90;;;;;;5058014;28;20389;-71
2022/05/03 04:53:47;;;;;;;24.30;17.08;;;7.00;99.90;;;;;;5050478;28;20053;-71
2022/05/03 04:56:21;;;;;;;24.42;16.25;;;7.00;99.90;;;;;;5049955;28;20496;-70
2022/05/03 04:58:48;;;;;;;21.55;16.98;;;7.10;99.90;;;;;;5050344;28;20051;-71
2022/05/03 05:01:14;;;;;;;25.65;16.42;;;7.20;99.90;;;;;;5051480;28;20045;-70
2022/05/03 05:03:41;;;;;;;22.98;16.80;;;7.20;99.90;;;;;;5049183;28;20396;-70
2022/05/03 05:06:06;;;;;;;25.98;17.75;;;7.20;99.90;;;;;;5058159;28;20047;-71
2022/05/03 05:08:32;;;;;;;30.88;18.42;;;7.20;99.90;;;;;;5069185;28;20048;-72
2022/05/03 05:10:57;;;;;;;23.17;17.45;;;7.30;99.90;;;;;;5064608;28;20101;-71
2022/05/03 05:13:23;;;;;;;27.08;18.23;;;7.60;99.90;;;;;;5053933;28;20041;-69
2022/05/03 05:15:49;;;;;;;23.10;17.67;;;7.40;99.90;;;;;;5050266;28;20037;-71
2022/05/03 05:18:16;;;;;;;24.35;17.83;;;7.40;99.90;;;;;;5065935;28;20052;-71
2022/05/03 05:20:43;;;;;;;23.85;16.88;;;7.50;99.90;;;;;;5069757;28;20055;-71
2022/05/03 05:23:08;;;;;;;22.70;17.45;;;7.50;99.90;;;;;;5069938;28;20118;-71
2022/05/03 05:25:34;;;;;;;24.77;17.45;;;7.60;99.90;;;;;;5069971;28;20048;-71
2022/05/03 05:27:59;;;;;;;25.92;18.20;;;7.60;99.90;;;;;;5051583;28;20048;-71
2022/05/03 05:30:26;;;;;;;25.05;18.10;;;7.60;99.90;;;;;;5049979;28;20045;-71
2022/05/03 05:32:52;;;;;;;23.23;17.60;;;7.70;99.90;;;;;;5048554;28;20492;-70
2022/05/03 05:35:18;;;;;;;25.30;18.05;;;8.10;99.90;;;;;;5048506;28;20068;-71
2022/05/03 05:37:43;;;;;;;26.83;17.83;;;7.80;99.90;;;;;;5055442;28;20593;-71
2022/05/03 05:40:09;;;;;;;28.05;18.42;;;7.90;99.90;;;;;;5067957;28;20052;-68
2022/05/03 05:42:35;;;;;;;28.77;18.75;;;7.90;99.90;;;;;;5069723;28;20076;-70
2022/05/03 05:45:01;;;;;;;34.38;20.15;;;8.00;99.90;;;;;;5070863;28;20064;-71
2022/05/03 05:47:27;;;;;;;31.60;21.92;;;8.00;99.90;;;;;;5070189;28;20159;-70
2022/05/03 05:49:53;;;;;;;30.58;20.55;;;8.30;99.90;;;;;;5073464;28;20047;-70
2022/05/03 05:55:05;;;;;;;31.00;20.45;;;8.00;99.90;;;;;;5071680;28;20102;-70
2022/05/03 05:57:30;;;;;;;33.20;21.05;;;8.10;99.90;;;;;;5071809;28;20055;-71
2022/05/03 05:59:56;;;;;;;29.92;21.40;;;8.10;99.90;;;;;;5059511;28;20127;-71
2022/05/03 06:02:21;;;;;;;30.45;19.85;;;8.20;99.90;;;;;;5051500;28;20045;-71
2022/05/03 06:04:47;;;;;;;28.80;21.02;;;8.20;99.90;;;;;;5051865;28;20373;-70
2022/05/03 06:07:13;;;;;;;30.83;20.00;;;8.20;99.90;;;;;;5052838;28;20040;-71
2022/05/03 06:09:38;;;;;;;29.73;21.92;;;8.30;99.90;;;;;;5055500;28;20045;-70
2022/05/03 06:12:04;;;;;;;39.63;24.15;;;8.70;99.90;;;;;;5071934;28;20037;-71
2022/05/03 06:14:30;;;;;;;31.80;22.02;;;8.30;99.90;;;;;;5060086;28;20529;-73
2022/05/03 06:16:57;;;;;;;32.72;21.33;;;8.30;99.90;;;;;;5052735;28;20048;-71
2022/05/03 06:19:24;;;;;;;29.98;21.67;;;8.40;99.90;;;;;;5052763;28;20060;-70
2022/05/03 06:21:50;;;;;;;32.17;21.73;;;8.40;99.90;;;;;;5057469;28;20040;-71
2022/05/03 06:24:16;;;;;;;34.22;22.70;;;8.50;99.90;;;;;;5072982;28;20044;-71
2022/05/03 06:26:42;;;;;;;50.72;25.05;;;8.50;99.90;;;;;;5073061;28;20109;-73
2022/05/03 06:29:11;;;;;;;42.97;24.40;;;8.60;99.90;;;;;;5072855;28;20123;-71
2022/05/03 06:31:39;;;;;;;39.20;23.52;;;8.60;99.90;;;;;;5069990;28;20048;-71
2022/05/03 06:34:05;;;;;;;34.72;22.90;;;8.70;99.90;;;;;;5072667;28;20089;-71
2022/05/03 06:36:31;;;;;;;35.70;22.30;;;8.60;99.90;;;;;;5072770;28;20048;-71
2022/05/03 06:38:59;;;;;;;31.25;22.33;;;8.70;99.90;;;;;;5071048;28;20044;-70
2022/05/03 06:41:25;;;;;;;31.67;22.15;;;8.70;99.90;;;;;;5057021;28;20089;-70
2022/05/03 06:43:50;;;;;;;33.90;20.77;;;8.70;99.90;;;;;;5067407;28;20061;-70
2022/05/03 06:46:16;;;;;;;28.10;16.50;;;8.80;99.90;;;;;;5059856;28;20052;-71
2022/05/03 06:48:42;;;;;;;20.48;11.90;;;8.80;99.90;;;;;;5069255;28;20392;-72
2022/05/03 06:51:08;;;;;;;16.55;6.63;;;8.90;99.90;;;;;;5071933;28;20032;-70
2022/05/03 06:53:34;;;;;;;17.13;5.22;;;8.90;99.90;;;;;;5071029;28;20488;-72
2022/05/03 06:56:00;;;;;;;12.85;4.47;;;8.90;99.90;;;;;;5070714;28;20041;-73
2022/05/03 06:58:26;;;;;;;17.15;5.38;;;9.00;99.90;;;;;;5070293;28;20064;-72
2022/05/03 07:00:52;;;;;;;16.02;4.80;;;9.00;99.90;;;;;;5071933;28;20087;-75
2022/05/03 07:03:17;;;;;;;14.10;4.80;;;9.00;99.90;;;;;;5072021;28;20048;-71
2022/05/03 07:05:43;;;;;;;14.35;4.18;;;9.10;99.90;;;;;;5070780;28;20051;-72
2022/05/03 07:08:10;;;;;;;13.40;4.47;;;9.10;99.90;;;;;;5071593;28;20044;-73
2022/05/03 07:10:36;;;;;;;16.98;5.13;;;9.10;99.90;;;;;;5071802;28;20052;-71
2022/05/03 07:13:03;;;;;;;16.85;5.88;;;9.20;99.90;;;;;;5070878;28;20137;-73
2022/05/03 07:15:30;;;;;;;19.13;5.53;;;9.20;99.90;;;;;;5070897;28;20105;-73
2022/05/03 07:23:26;;;;;;;20.20;5.57;;;9.30;99.90;;;;;;5071783;28;20085;-71
2022/05/03 07:25:53;;;;;;;17.80;4.72;;;9.30;99.90;;;;;;5071146;28;20051;-72
2022/05/03 07:28:19;;;;;;;21.02;5.90;;;9.30;99.90;;;;;;5066124;28;20049;-71
2022/05/03 07:30:45;;;;;;;21.40;6.15;;;9.80;99.90;;;;;;5051555;28;20124;-72
2022/05/03 07:33:11;;;;;;;19.92;5.85;;;9.40;99.90;;;;;;5051317;28;20045;-72
2022/05/03 07:35:37;;;;;;;25.92;6.38;;;9.40;99.90;;;;;;5051354;28;20102;-73
2022/05/03 07:38:03;;;;;;;16.92;4.63;;;9.40;99.90;;;;;;5049758;28;20053;-71
2022/05/03 07:40:29;;;;;;;24.02;5.97;;;9.40;99.90;;;;;;5068792;28;20155;-73
2022/05/03 07:42:55;;;;;;;25.38;5.47;;;9.50;99.90;;;;;;5071229;28;20040;-72
2022/05/03 07:45:21;;;;;;;22.55;5.38;;;9.50;99.90;;;;;;5068954;28;20459;-72
2022/05/03 07:47:47;;;;;;;30.42;6.25;;;9.50;99.90;;;;;;5070447;28;20127;-72
2022/05/03 07:50:13;;;;;;;20.00;5.95;;;9.70;99.90;;;;;;5071224;28;20138;-73
2022/05/03 07:52:39;;;;;;;24.77;5.85;;;9.60;99.90;;;;;;5071221;28;20056;-73
2022/05/03 07:55:07;;;;;;;26.10;6.38;;;9.80;99.90;;;;;;5070687;28;20471;-73
2022/05/03 07:57:33;;;;;;;28.50;5.25;;;9.80;99.90;;;;;;5070654;28;20055;-74
2022/05/03 07:59:59;;;;;;;22.25;5.72;;;9.80;99.90;;;;;;5070622;28;20055;-76
2022/05/03 08:02:26;;;;;;;23.52;5.70;;;9.90;99.90;;;;;;5070703;28;20123;-73
2022/05/03 08:04:53;;;;;;;17.88;5.30;;;10.00;99.90;;;;;;5070749;28;20032;-73
2022/05/03 08:07:19;;;;;;;28.00;5.55;;;10.10;99.90;;;;;;5070417;28;20048;-75
2022/05/03 08:09:46;;;;;;;21.88;5.03;;;10.30;99.90;;;;;;5070645;28;20050;-74
2022/05/03 08:12:12;;;;;;;26.75;5.13;;;10.50;99.90;;;;;;5070638;28;20559;-73
2022/05/03 08:14:38;;;;;;;24.15;4.45;;;10.20;99.90;;;;;;5070534;28;20127;-74
2022/05/03 08:17:04;;;;;;;22.17;4.30;;;10.20;99.90;;;;;;5070527;28;20052;-74
2022/05/03 08:19:30;;;;;;;18.30;4.18;;;10.60;99.90;;;;;;5068480;28;20106;-75
2022/05/03 08:21:57;;;;;;;17.75;4.03;;;10.20;99.90;;;;;;5070388;28;20080;-71
2022/05/03 08:24:23;;;;;;;16.23;4.63;;;10.20;99.90;;;;;;5069312;28;20044;-75
2022/05/03 08:26:49;;;;;;;20.42;4.05;;;10.30;99.90;;;;;;5070102;28;20040;-74
2022/05/03 08:29:15;;;;;;;20.45;3.80;;;10.30;99.90;;;;;;5068964;28;20049;-73
2022/05/03 08:31:41;;;;;;;17.33;3.95;;;10.30;99.90;;;;;;5070374;28;20091;-75
2022/05/03 08:34:07;;;;;;;22.55;3.97;;;10.30;99.90;;;;;;5070429;28;20092;-74
2022/05/03 08:36:33;;;;;;;18.40;4.55;;;10.40;99.90;;;;;;5070302;28;20052;-74
2022/05/03 08:42:06;;;;;;;13.98;4.03;;;10.40;99.90;;;;;;5011033;28;20095;-73
2022/05/03 08:44:33;;;;;;;18.00;3.42;;;10.40;99.90;;;;;;5011385;28;20046;-76
2022/05/03 08:47:02;;;;;;;13.38;3.80;;;10.50;99.90;;;;;;5027708;28;20491;-75
2022/05/03 08:49:46;;;;;;;21.35;3.92;;;10.60;99.90;;;;;;5027924;28;20041;-74
2022/05/03 08:52:14;;;;;;;17.83;4.22;;;10.50;99.90;;;;;;5011267;28;20128;-74
2022/05/03 08:54:39;;;;;;;16.55;3.30;;;10.50;99.90;;;;;;5027705;28;20085;-73
2022/05/03 08:57:07;;;;;;;14.93;3.38;;;10.60;99.90;;;;;;5027337;28;20131;-73
2022/05/03 08:59:35;;;;;;;13.57;3.33;;;10.50;99.90;;;;;;5027681;28;20789;-74
2022/05/03 09:02:01;;;;;;;17.98;3.42;;;10.90;99.90;;;;;;5011252;28;20064;-74
2022/05/03 09:04:27;;;;;;;15.90;3.42;;;10.50;99.90;;;;;;5027664;28;20047;-76
2022/05/03 09:06:53;;;;;;;24.15;3.97;;;10.60;99.90;;;;;;5027641;28;20050;-73
2022/05/03 09:09:20;;;;;;;21.95;4.32;;;10.60;99.90;;;;;;5027586;28;20045;-74
2022/05/03 09:11:53;;;;;;;19.77;3.50;;;10.70;99.90;;;;;;5029612;28;20061;-73
2022/05/03 09:14:42;;;;;;;19.10;3.83;;;10.70;99.90;;;;;;5070161;28;20135;-75
2022/05/03 09:17:08;;;;;;;21.45;3.35;;;10.80;99.90;;;;;;5069415;28;20048;-74
2022/05/03 09:19:34;;;;;;;28.52;4.53;;;10.80;99.90;;;;;;5072489;28;20381;-74
2022/05/03 09:24:55;;;;;;;18.23;3.50;;;11.00;99.90;;;;;;5074378;28;20049;-75
2022/05/03 09:27:23;;;;;;;22.27;2.95;;;11.10;99.90;;;;;;5073468;28;20055;-75
2022/05/03 09:30:02;;;;;;;16.85;3.38;;;11.10;99.90;;;;;;5074072;28;20044;-73
2022/05/03 09:32:38;;;;;;;16.15;3.22;;;11.30;99.90;;;;;;5072429;28;20553;-75
2022/05/03 09:35:06;;;;;;;19.55;3.35;;;11.30;99.90;;;;;;5073342;28;20047;-72
2022/05/03 09:37:42;;;;;;;15.45;2.85;;;11.30;99.90;;;;;;5073763;28;20108;-73
2022/05/03 09:40:16;;;;;;;15.60;2.75;;;11.50;99.90;;;;;;5073799;28;20106;-73
2022/05/03 09:42:54;;;;;;;19.65;2.78;;;11.80;99.90;;;;;;5056266;28;20052;-74
2022/05/03 09:45:24;;;;;;;14.38;3.28;;;11.70;99.90;;;;;;5072308;28;20128;-72
2022/05/03 09:47:52;;;;;;;13.98;2.50;;;12.10;99.90;;;;;;5071938;28;20056;-75
2022/05/03 09:50:37;;;;;;;10.85;2.70;;;11.90;99.90;;;;;;5055368;28;20060;-73
2022/05/03 09:53:14;;;;;;;18.08;3.15;;;12.10;99.90;;;;;;5071788;28;20555;-73
2022/05/03 09:55:41;;;;;;;10.15;2.28;;;12.30;99.90;;;;;;5072740;28;20043;-72
2022/05/03 09:58:09;;;;;;;13.02;3.00;;;12.40;99.90;;;;;;5073142;28;20095;-74
2022/05/03 10:00:38;;;;;;;13.80;2.67;;;12.50;99.90;;;;;;5072588;28;20098;-73
2022/05/03 10:03:07;;;;;;;8.93;2.40;;;12.60;99.90;;;;;;5072972;28;20090;-71
2022/05/03 10:05:34;;;;;;;11.82;2.45;;;12.80;99.90;;;;;;5072100;28;20059;-74
2022/05/03 10:08:01;;;;;;;12.40;2.20;;;13.00;99.90;;;;;;5073164;28;20055;-74
2022/05/03 10:10:27;;;;;;;14.07;2.65;;;13.20;99.90;;;;;;5073204;28;20566;-73
2022/05/03 10:12:55;;;;;;;11.63;2.17;;;13.20;99.90;;;;;;5072566;28;20155;-74
2022/05/03 10:21:15;;;;;;;10.38;2.08;;;13.60;99.90;;;;;;5072684;28;20080;-74
2022/05/03 10:23:41;;;;;;;12.35;2.70;;;13.60;99.90;;;;;;5071199;28;20048;-74
2022/05/03 10:26:09;;;;;;;13.40;2.58;;;13.80;99.90;;;;;;5072831;28;20051;-73
2022/05/03 10:28:56;;;;;;;6.90;1.77;;;13.90;99.90;;;;;;5071069;28;20491;-73
2022/05/03 10:31:22;;;;;;;8.98;1.92;;;13.90;99.90;;;;;;5054933;28;20672;-73
2022/05/03 10:33:48;;;;;;;8.98;1.90;;;13.90;99.90;;;;;;5072123;28;20127;-73
2022/05/03 10:36:32;;;;;;;10.60;1.92;;;13.80;99.90;;;;;;5072577;28;20048;-73
2022/05/03 10:39:16;;;;;;;12.07;2.33;;;13.80;99.90;;;;;;5071114;28;20071;-74
2022/05/03 10:42:12;;;;;;;16.07;2.60;;;13.90;99.90;;;;;;5072504;28;20121;-73
2022/05/03 10:44:46;;;;;;;7.75;2.20;;;13.90;99.90;;;;;;5007621;28;20307;-73
2022/05/03 10:47:17;;;;;;;11.63;1.90;;;14.40;99.90;;;;;;4992207;28;20050;-72
2022/05/03 10:50:19;;;;;;;8.60;2.00;;;14.20;99.90;;;;;;4990452;28;20050;-73
2022/05/03 10:52:58;;;;;;;10.82;2.05;;;14.10;99.90;;;;;;4990584;28;20196;-75
2022/05/03 10:55:28;;;;;;;8.30;2.13;;;14.20;99.90;;;;;;4991332;28;20054;-72
2022/05/03 10:58:16;;;;;;;11.85;2.28;;;14.10;99.90;;;;;;4990125;28;20054;-74
2022/05/03 11:01:08;;;;;;;12.85;2.10;;;14.20;99.90;;;;;;4990285;28;20057;-73
2022/05/03 11:03:37;;;;;;;7.13;1.35;;;14.30;99.90;;;;;;5009342;28;20053;-72
2022/05/03 11:06:25;;;;;;;11.63;1.70;;;14.30;99.90;;;;;;4975633;28;20066;-71
2022/05/03 11:11:43;;;;;;;10.20;2.15;;;14.30;99.90;;;;;;4993163;28;20124;-71
2022/05/03 11:14:15;;;;;;;8.38;1.80;;;14.30;99.90;;;;;;4989812;28;20054;-71
2022/05/03 11:16:42;;;;;;;7.70;1.67;;;14.40;99.90;;;;;;4989897;28;20104;-73
2022/05/03 11:19:15;;;;;;;8.93;1.42;;;14.30;99.90;;;;;;4974795;28;20054;-73
2022/05/03 11:21:42;;;;;;;8.40;1.90;;;14.40;99.90;;;;;;5047386;28;20045;-74
2022/05/03 11:24:20;;;;;;;6.55;1.88;;;14.50;99.90;;;;;;5071439;28;20052;-74
2022/05/03 11:26:48;;;;;;;6.25;1.25;;;14.50;99.90;;;;;;5071814;28;20045;-72
2022/05/03 11:29:14;;;;;;;9.32;1.83;;;14.70;99.90;;;;;;5071508;28;20044;-73
2022/05/03 11:31:46;;;;;;;9.50;1.40;;;14.50;99.90;;;;;;5068486;28;20093;-72
2022/05/03 11:34:12;;;;;;;9.82;1.98;;;14.60;99.90;;;;;;5053632;28;20044;-72
2022/05/03 11:36:38;;;;;;;10.77;1.88;;;14.50;99.90;;;;;;5070026;28;20132;-72
2022/05/03 11:39:04;;;;;;;6.70;1.50;;;14.60;99.90;;;;;;5059240;28;20161;-72
2022/05/03 11:41:30;;;;;;;8.70;1.80;;;14.70;99.90;;;;;;5067174;28;20426;-72
2022/05/03 11:43:56;;;;;;;8.75;1.60;;;14.80;99.90;;;;;;5064378;28;20064;-71
2022/05/03 11:46:23;;;;;;;10.15;1.63;;;14.90;99.90;;;;;;5069572;28;20052;-73
2022/05/03 11:48:54;;;;;;;7.22;1.85;;;14.80;99.90;;;;;;5071172;28;20053;-73
2022/05/03 11:57:11;;;;;;;9.40;1.95;;;15.20;99.90;;;;;;5070929;28;20044;-72
2022/05/03 11:59:39;;;;;;;4.85;1.33;;;15.20;99.90;;;;;;5064379;28;20045;-73
2022/05/03 12:02:19;;;;;;;13.27;1.75;;;15.10;99.90;;;;;;5049464;28;20106;-72
2022/05/03 12:05:04;;;;;;;9.55;1.90;;;15.10;99.90;;;;;;5051023;28;20051;-72
2022/05/03 12:07:41;;;;;;;9.38;2.42;;;15.10;99.90;;;;;;5050888;28;20055;-74
2022/05/03 12:10:24;;;;;;;8.40;1.70;;;15.20;99.90;;;;;;5051783;28;20053;-72
2022/05/03 12:13:09;;;;;;;10.85;1.95;;;15.30;99.90;;;;;;5049438;28;20041;-74
2022/05/03 12:15:50;;;;;;;9.45;1.50;;;15.50;99.90;;;;;;5049580;28;20048;-74
2022/05/03 12:18:28;;;;;;;5.90;1.50;;;15.70;99.90;;;;;;5050701;28;20488;-73
2022/05/03 12:21:03;;;;;;;8.02;1.63;;;15.70;99.90;;;;;;5051430;28;20045;-72
2022/05/03 12:23:34;;;;;;;6.82;2.30;;;16.10;99.90;;;;;;5050524;28;20551;-74
2022/05/03 12:26:12;;;;;;;6.75;1.70;;;16.20;99.90;;;;;;5050765;28;20128;-73
2022/05/03 12:28:41;;;;;;;7.40;1.55;;;16.20;99.90;;;;;;5050532;28;20049;-73
2022/05/03 12:31:10;;;;;;;9.00;1.67;;;16.40;99.90;;;;;;5051250;28;20068;-71
2022/05/03 12:33:43;;;;;;;11.23;2.42;;;16.70;99.90;;;;;;5049143;28;20049;-74
2022/05/03 12:36:09;;;;;;;9.57;2.13;;;16.90;99.90;;;;;;5050364;28;20049;-72
2022/05/03 12:38:49;;;;;;;10.00;1.90;;;17.10;99.90;;;;;;5050453;28;20049;-74
2022/05/03 12:41:31;;;;;;;13.27;2.92;;;17.10;99.60;;;;;;5050291;28;20365;-75
2022/05/03 12:44:01;;;;;;;7.70;1.60;;;17.50;99.90;;;;;;5060291;28;20388;-76
2022/05/03 12:46:28;;;;;;;22.40;2.97;;;17.70;99.40;;;;;;5068860;28;20131;-75
2022/05/03 12:48:54;;;;;;;14.82;2.80;;;17.50;98.80;;;;;;5052381;28;20618;-74
2022/05/03 12:51:19;;;;;;;18.02;2.42;;;17.50;99.00;;;;;;5060877;28;20491;-74
2022/05/03 12:53:48;;;;;;;8.75;1.65;;;17.40;98.70;;;;;;5049303;28;20407;-75
2022/05/03 12:58:58;;;;;;;12.10;1.90;;;17.20;98.30;;;;;;5050332;28;20122;-75
2022/05/03 13:01:24;;;;;;;7.60;1.77;;;17.20;97.80;;;;;;5049967;28;20521;-76
2022/05/03 13:03:51;;;;;;;7.32;1.63;;;17.30;97.70;;;;;;5050116;28;20116;-74
2022/05/03 13:06:20;;;;;;;9.68;1.60;;;16.80;97.10;;;;;;5050185;28;20102;-74
2022/05/03 13:08:46;;;;;;;6.90;1.77;;;16.80;97.80;;;;;;5049998;28;20395;-74
2022/05/03 13:11:13;;;;;;;8.82;1.67;;;16.40;96.90;;;;;;5049893;28;20041;-74
2022/05/03 13:13:38;;;;;;;8.80;1.40;;;16.60;97.60;;;;;;5057706;28;20048;-73
2022/05/03 13:16:04;;;;;;;7.43;1.60;;;16.80;98.00;;;;;;5069826;28;20399;-75
2022/05/03 13:18:30;;;;;;;6.40;1.60;;;17.20;98.00;;;;;;5070058;28;20049;-72
2022/05/03 13:20:56;;;;;;;9.05;1.63;;;17.00;97.00;;;;;;5068881;28;20046;-75
2022/05/03 13:23:22;;;;;;;10.02;1.63;;;17.00;97.20;;;;;;5061445;28;20476;-73
2022/05/03 13:25:48;;;;;;;7.90;1.50;;;17.10;97.00;;;;;;5048644;28;20484;-74
2022/05/03 13:28:14;;;;;;;7.95;1.48;;;17.10;96.50;;;;;;5049735;28;20052;-73
2022/05/03 13:30:40;;;;;;;5.72;1.35;;;17.30;96.60;;;;;;5048714;28;20052;-75
2022/05/03 13:33:06;;;;;;;6.93;1.48;;;17.40;97.10;;;;;;5049845;28;20452;-74
2022/05/03 13:41:00;;;;;;;9.45;1.90;;;17.10;95.80;;;;;;5057758;28;20055;-73